Time;durP1;ratioP1;P1;durP2;ratioP2;P2;SDS_P1;SDS_P2;PMS_P1;PMS_P2;Temp;Humidity;BMP_temperature;BMP_pressure;BME280_temperature;BME280_humidity;BME280_pressure;Samples;Min_cycle;Max_cycle;Signal;HPM_P1;HPM_P2
2023/09/30 05:47:41;;;;;;;6.82;3.20;;;;;;;;;;10502237;28;20721;-84
2023/09/30 05:52:44;;;;;;;7.05;3.55;;;;;;;;;;10501104;28;20020;-85
2023/09/30 05:57:45;;;;;;;6.70;3.53;;;;;;;;;;10501177;28;20025;-84
2023/09/30 06:02:47;;;;;;;6.28;3.30;;;;;;;;;;10503721;28;20047;-84
2023/09/30 06:07:48;;;;;;;5.32;3.05;;;;;;;;;;10502738;28;20044;-84
2023/09/30 06:12:54;;;;;;;8.68;3.13;;;;;;;;;;10505278;28;20049;-84
2023/09/30 06:17:56;;;;;;;8.90;3.47;;;;;;;;;;10506346;28;20016;-84
2023/09/30 06:22:57;;;;;;;9.73;3.63;;;;;;;;;;10524653;28;20036;-84
2023/09/30 06:27:58;;;;;;;6.95;3.13;;;;;;;;;;10524143;28;20025;-84
2023/09/30 06:33:00;;;;;;;7.18;3.22;;;;;;;;;;10534379;28;20017;-84
2023/09/30 06:38:02;;;;;;;7.75;3.33;;;;;;;;;;10504504;28;20025;-83
2023/09/30 06:43:03;;;;;;;7.43;3.40;;;;;;;;;;10502447;28;20048;-83
2023/09/30 06:48:05;;;;;;;6.50;3.60;;;;;;;;;;10503868;28;20040;-84
2023/09/30 06:53:06;;;;;;;6.07;3.22;;;;;;;;;;10505641;28;20024;-83
2023/09/30 06:58:08;;;;;;;6.18;3.75;;;;;;;;;;10479498;28;20513;-83
2023/09/30 07:03:09;;;;;;;7.70;4.65;;;;;;;;;;10479086;28;20025;-83
2023/09/30 07:08:11;;;;;;;5.78;3.25;;;;;;;;;;10468204;28;20093;-85
2023/09/30 07:13:17;;;;;;;6.05;3.35;;;;;;;;;;10483498;28;20040;-84
2023/09/30 07:18:18;;;;;;;9.73;3.78;;;;;;;;;;10461304;28;20029;-83
2023/09/30 07:23:21;;;;;;;10.05;3.70;;;;;;;;;;10479620;28;20032;-83
2023/09/30 07:28:23;;;;;;;9.85;4.65;;;;;;;;;;10483079;28;20028;-84
2023/09/30 07:33:25;;;;;;;10.45;4.95;;;;;;;;;;10480219;28;20029;-84
2023/09/30 07:38:27;;;;;;;12.13;4.95;;;;;;;;;;10483959;28;20021;-84
2023/09/30 07:43:33;;;;;;;9.38;4.55;;;;;;;;;;10479325;28;20115;-84
2023/09/30 07:48:35;;;;;;;11.38;4.93;;;;;;;;;;10478369;28;20055;-82
2023/09/30 07:54:07;;;;;;;11.50;5.50;;;;;;;;;;10480918;28;20036;-86
2023/09/30 07:59:11;;;;;;;9.80;5.18;;;;;;;;;;10480572;28;20059;-85
2023/09/30 08:04:12;;;;;;;8.98;4.80;;;;;;;;;;10473340;28;20119;-84
2023/09/30 08:09:18;;;;;;;9.98;5.93;;;;;;;;;;10467305;28;20029;-83
2023/09/30 08:14:19;;;;;;;13.32;6.93;;;;;;;;;;10474782;28;20017;-85
2023/09/30 08:19:20;;;;;;;11.80;6.45;;;;;;;;;;10471319;28;20037;-85
2023/09/30 08:24:22;;;;;;;10.02;6.30;;;;;;;;;;10471914;28;20082;-85
2023/09/30 08:29:26;;;;;;;10.50;5.78;;;;;;;;;;10484961;28;20040;-85
2023/09/30 08:34:28;;;;;;;9.68;5.50;;;;;;;;;;10498256;28;20013;-86
2023/09/30 08:39:29;;;;;;;8.20;5.75;;;;;;;;;;10499173;28;20036;-85
2023/09/30 08:44:31;;;;;;;10.05;5.63;;;;;;;;;;10483811;28;20044;-86
2023/09/30 08:49:35;;;;;;;9.70;5.53;;;;;;;;;;10469680;28;20091;-86
2023/09/30 08:54:36;;;;;;;9.13;4.85;;;;;;;;;;10452296;28;20397;-86
2023/09/30 08:59:38;;;;;;;9.93;5.65;;;;;;;;;;10467298;28;20024;-86
2023/09/30 09:04:39;;;;;;;11.23;5.60;;;;;;;;;;10464823;28;20025;-85
2023/09/30 09:09:40;;;;;;;11.68;5.68;;;;;;;;;;10468660;28;20108;-85
2023/09/30 09:14:42;;;;;;;9.57;5.50;;;;;;;;;;10470148;28;20024;-86
2023/09/30 09:19:43;;;;;;;7.80;4.88;;;;;;;;;;10467844;28;20031;-86
2023/09/30 09:24:46;;;;;;;10.43;4.85;;;;;;;;;;10464342;28;20465;-86
2023/09/30 09:29:47;;;;;;;9.68;4.88;;;;;;;;;;10465516;28;20029;-86
2023/09/30 09:35:01;;;;;;;10.32;4.85;;;;;;;;;;10490145;28;20033;-86
2023/09/30 09:40:03;;;;;;;10.40;5.38;;;;;;;;;;10490076;28;20033;-85
2023/09/30 09:45:05;;;;;;;9.55;5.00;;;;;;;;;;10472480;28;20051;-86
2023/09/30 09:50:07;;;;;;;7.20;4.20;;;;;;;;;;10474149;28;20453;-86
2023/09/30 09:55:08;;;;;;;7.03;3.83;;;;;;;;;;10485084;28;20037;-84
2023/09/30 10:00:14;;;;;;;9.10;4.00;;;;;;;;;;10469873;28;20029;-86
2023/09/30 10:05:15;;;;;;;7.95;3.80;;;;;;;;;;10471022;28;20021;-86
2023/09/30 10:10:18;;;;;;;7.70;3.90;;;;;;;;;;10475403;28;20025;-86
2023/09/30 10:15:25;;;;;;;7.93;3.25;;;;;;;;;;10478026;28;20029;-85
2023/09/30 10:20:33;;;;;;;11.07;3.75;;;;;;;;;;10487228;28;20053;-83
2023/09/30 10:25:35;;;;;;;5.25;3.38;;;;;;;;;;10476923;28;20052;-84
2023/09/30 10:30:36;;;;;;;6.22;3.25;;;;;;;;;;10469514;28;20027;-84
2023/09/30 10:35:37;;;;;;;11.13;6.25;;;;;;;;;;10475364;28;20033;-84
2023/09/30 10:40:38;;;;;;;6.55;3.40;;;;;;;;;;10485283;28;20067;-84
2023/09/30 10:45:46;;;;;;;6.88;3.50;;;;;;;;;;10497941;28;20479;-84
2023/09/30 10:50:51;;;;;;;5.80;3.00;;;;;;;;;;10489992;28;20021;-84
2023/09/30 10:55:54;;;;;;;6.65;3.30;;;;;;;;;;10493772;28;20025;-84
2023/09/30 11:00:56;;;;;;;6.63;3.30;;;;;;;;;;10486111;28;20025;-84
2023/09/30 11:05:57;;;;;;;5.63;3.30;;;;;;;;;;10474545;28;20021;-86
2023/09/30 11:11:00;;;;;;;9.80;3.88;;;;;;;;;;10483841;28;20485;-84
2023/09/30 11:16:02;;;;;;;5.55;3.33;;;;;;;;;;10486205;28;20029;-84
2023/09/30 11:21:07;;;;;;;6.38;3.78;;;;;;;;;;10476208;28;20021;-85
2023/09/30 11:26:09;;;;;;;6.43;3.30;;;;;;;;;;10476222;28;20116;-85
2023/09/30 11:31:11;;;;;;;5.70;3.63;;;;;;;;;;10478815;28;20052;-85
2023/09/30 11:36:14;;;;;;;5.63;3.40;;;;;;;;;;10478163;28;20075;-85
2023/09/30 11:41:18;;;;;;;7.03;3.85;;;;;;;;;;10474549;28;20020;-85
2023/09/30 11:46:22;;;;;;;7.57;4.40;;;;;;;;;;10465749;28;20169;-85
2023/09/30 11:51:24;;;;;;;7.10;4.50;;;;;;;;;;10464100;28;20033;-84
2023/09/30 11:56:29;;;;;;;7.78;4.35;;;;;;;;;;10483527;22;20092;-87
2023/09/30 12:01:43;;;;;;;9.60;4.72;;;;;;;;;;10404266;28;20066;-86
2023/09/30 12:06:45;;;;;;;8.82;4.25;;;;;;;;;;10413433;28;20041;-87
2023/09/30 12:11:46;;;;;;;7.55;4.40;;;;;;;;;;10386790;28;20061;-87
2023/09/30 12:16:53;;;;;;;7.63;4.40;;;;;;;;;;10383442;28;20030;-85
2023/09/30 12:22:02;;;;;;;7.05;4.25;;;;;;;;;;10388149;28;20022;-85
2023/09/30 12:27:17;;;;;;;8.55;4.32;;;;;;;;;;10384436;28;20057;-86
2023/09/30 12:32:18;;;;;;;8.00;4.22;;;;;;;;;;10383537;28;20482;-84
2023/09/30 12:37:21;;;;;;;4.95;3.60;;;;;;;;;;10384536;28;20026;-85
2023/09/30 12:42:22;;;;;;;7.22;4.15;;;;;;;;;;10382731;28;20052;-85
2023/09/30 12:47:27;;;;;;;6.25;3.78;;;;;;;;;;10385091;28;20040;-85
2023/09/30 12:52:33;;;;;;;7.50;3.78;;;;;;;;;;10384184;28;20026;-85
2023/09/30 12:58:09;;;;;;;6.93;3.78;;;;;;;;;;10385851;28;20029;-85
2023/09/30 13:03:15;;;;;;;7.75;3.35;;;;;;;;;;10389213;28;20022;-85
2023/09/30 13:08:36;;;;;;;5.28;3.13;;;;;;;;;;10386008;28;20155;-85
2023/09/30 13:13:39;;;;;;;5.45;2.97;;;;;;;;;;10386651;28;20022;-84
2023/09/30 13:18:41;;;;;;;5.03;3.45;;;;;;;;;;10388458;28;20089;-84
2023/09/30 13:23:42;;;;;;;5.80;2.60;;;;;;;;;;10389045;28;20080;-85
2023/09/30 13:28:49;;;;;;;6.32;3.20;;;;;;;;;;10382941;28;20109;-83
2023/09/30 13:33:55;;;;;;;7.68;3.45;;;;;;;;;;10378801;28;20036;-83
2023/09/30 13:39:05;;;;;;;4.90;3.03;;;;;;;;;;10382399;28;20026;-83
2023/09/30 13:44:06;;;;;;;4.65;2.67;;;;;;;;;;10379102;28;20030;-84
2023/09/30 13:49:48;;;;;;;6.07;3.20;;;;;;;;;;10419917;28;20022;-84
2023/09/30 13:55:18;;;;;;;4.85;2.85;;;;;;;;;;10375439;28;20490;-83
2023/09/30 14:06:24;;;;;;;6.93;3.20;;;;;;;;;;10381387;28;20034;-83
2023/09/30 14:11:25;;;;;;;4.53;2.70;;;;;;;;;;10389666;28;20022;-83
2023/09/30 14:16:30;;;;;;;5.50;3.10;;;;;;;;;;10419643;28;20045;-88
2023/09/30 14:21:32;;;;;;;6.38;3.35;;;;;;;;;;10424061;28;20032;-83
2023/09/30 14:26:34;;;;;;;5.03;2.80;;;;;;;;;;10398388;28;20084;-86
2023/09/30 14:31:41;;;;;;;5.38;3.17;;;;;;;;;;10385809;28;20032;-85
2023/09/30 14:36:42;;;;;;;6.22;2.88;;;;;;;;;;10387505;28;20384;-85
2023/09/30 14:41:47;;;;;;;6.35;4.15;;;;;;;;;;10386647;28;20121;-85
2023/09/30 14:46:48;;;;;;;7.25;3.22;;;;;;;;;;10391036;28;20026;-86
2023/09/30 14:51:49;;;;;;;4.68;3.05;;;;;;;;;;10391587;28;20027;-85
2023/09/30 14:56:50;;;;;;;5.88;3.50;;;;;;;;;;10420417;28;20038;-85
2023/09/30 15:01:52;;;;;;;5.70;4.10;;;;;;;;;;10397788;28;20054;-83
2023/09/30 15:06:54;;;;;;;5.18;3.53;;;;;;;;;;10384562;28;20025;-84
2023/09/30 15:11:55;;;;;;;5.03;3.47;;;;;;;;;;10383242;28;20037;-84
2023/09/30 15:16:56;;;;;;;6.13;3.63;;;;;;;;;;10383535;28;20034;-84
2023/09/30 15:21:58;;;;;;;4.93;2.88;;;;;;;;;;10382192;28;20026;-84
2023/09/30 15:26:59;;;;;;;4.72;3.00;;;;;;;;;;10381960;28;20053;-84
2023/09/30 15:32:02;;;;;;;4.88;3.25;;;;;;;;;;10383359;28;20497;-84
2023/09/30 15:37:03;;;;;;;6.47;3.08;;;;;;;;;;10381975;28;20079;-84
2023/09/30 15:42:05;;;;;;;6.60;3.85;;;;;;;;;;10384809;28;20049;-85
2023/09/30 15:47:06;;;;;;;4.18;2.53;;;;;;;;;;10383734;28;20109;-85
2023/09/30 15:52:07;;;;;;;5.03;3.47;;;;;;;;;;10386909;28;20547;-86
2023/09/30 15:57:08;;;;;;;6.32;4.45;;;;;;;;;;10386217;28;20112;-85
2023/09/30 16:02:10;;;;;;;3.95;2.88;;;;;;;;;;10379668;28;20018;-86
2023/09/30 16:07:11;;;;;;;4.35;2.90;;;;;;;;;;10380864;28;20053;-85
2023/09/30 16:12:13;;;;;;;4.97;3.35;;;;;;;;;;10380295;28;20073;-85
2023/09/30 16:17:14;;;;;;;3.70;2.53;;;;;;;;;;10381777;28;20022;-86
2023/09/30 16:22:16;;;;;;;4.47;2.92;;;;;;;;;;10379359;28;20455;-86
2023/09/30 16:27:17;;;;;;;3.28;2.50;;;;;;;;;;10378520;28;20034;-85
2023/09/30 16:32:18;;;;;;;4.47;3.38;;;;;;;;;;10378931;28;20054;-88
2023/09/30 16:37:19;;;;;;;5.50;3.05;;;;;;;;;;10377970;28;20030;-88
2023/09/30 16:42:20;;;;;;;4.18;3.13;;;;;;;;;;10378330;28;20029;-88
2023/09/30 16:47:21;;;;;;;3.85;2.90;;;;;;;;;;10377034;28;20026;-88
2023/09/30 16:52:24;;;;;;;4.82;2.97;;;;;;;;;;10377076;28;20030;-88
2023/09/30 16:57:25;;;;;;;5.32;3.15;;;;;;;;;;10375975;28;20042;-87
2023/09/30 17:02:26;;;;;;;4.00;3.05;;;;;;;;;;10375853;28;20038;-88
2023/09/30 17:07:27;;;;;;;4.35;2.83;;;;;;;;;;10375693;28;20480;-88
2023/09/30 17:12:28;;;;;;;4.50;3.30;;;;;;;;;;10375416;28;20117;-88
2023/09/30 17:17:29;;;;;;;4.30;3.30;;;;;;;;;;10375706;28;20538;-88
2023/09/30 17:22:31;;;;;;;3.75;2.70;;;;;;;;;;10375165;28;20034;-88
2023/09/30 17:27:32;;;;;;;5.15;3.35;;;;;;;;;;10374026;28;20037;-88
2023/09/30 17:32:33;;;;;;;3.35;2.40;;;;;;;;;;10374504;28;20533;-88
2023/09/30 17:37:34;;;;;;;3.28;2.45;;;;;;;;;;10374583;28;20125;-88
2023/09/30 17:42:35;;;;;;;3.67;2.60;;;;;;;;;;10374307;28;20529;-88
2023/09/30 17:47:36;;;;;;;5.85;3.13;;;;;;;;;;10374369;28;20036;-88
2023/09/30 17:52:37;;;;;;;10.48;6.13;;;;;;;;;;10374544;28;20465;-87
2023/09/30 17:57:38;;;;;;;5.40;3.35;;;;;;;;;;10430035;22;20071;-87
2023/09/30 18:02:39;;;;;;;5.47;3.67;;;;;;;;;;10427136;28;20022;-87
2023/09/30 18:07:40;;;;;;;4.03;2.90;;;;;;;;;;10446171;28;20045;-83
2023/09/30 18:12:41;;;;;;;4.50;3.28;;;;;;;;;;10449968;28;20030;-86
2023/09/30 18:17:43;;;;;;;3.72;2.70;;;;;;;;;;10424309;28;20051;-87
2023/09/30 18:22:44;;;;;;;3.97;2.45;;;;;;;;;;10424700;28;20124;-86
2023/09/30 18:27:45;;;;;;;3.35;2.40;;;;;;;;;;10424768;28;20030;-87
2023/09/30 18:32:46;;;;;;;4.32;2.92;;;;;;;;;;10427570;28;20075;-87
2023/09/30 18:37:47;;;;;;;4.55;3.25;;;;;;;;;;10425076;28;20025;-88
2023/09/30 18:42:48;;;;;;;5.05;4.10;;;;;;;;;;10424355;28;20112;-87
2023/09/30 18:47:51;;;;;;;5.63;3.83;;;;;;;;;;10423414;28;20097;-87
2023/09/30 18:52:54;;;;;;;5.13;3.75;;;;;;;;;;10429495;28;20022;-87
2023/09/30 18:57:55;;;;;;;5.93;4.20;;;;;;;;;;10432820;28;20032;-87
2023/09/30 19:02:56;;;;;;;4.72;4.05;;;;;;;;;;10431882;28;20025;-86
2023/09/30 19:07:58;;;;;;;4.90;3.25;;;;;;;;;;10430502;28;20064;-87
